createdAt,value
2019-04-16T00:01:21.571Z,3.89
2019-04-16T00:05:30.879Z,3.80
2019-04-16T00:09:38.927Z,3.71
2019-04-16T00:13:44.284Z,3.61
2019-04-16T00:17:48.130Z,3.58
2019-04-16T00:22:02.465Z,3.53
2019-04-16T00:26:07.512Z,3.48
2019-04-16T00:30:11.653Z,3.46
2019-04-16T00:34:15.251Z,3.28
2019-04-16T00:38:22.464Z,3.21
2019-04-16T00:42:24.340Z,3.31
2019-04-16T00:46:27.935Z,3.24
2019-04-16T00:50:31.586Z,3.14
2019-04-16T00:54:35.168Z,3.11
2019-04-16T00:58:38.776Z,3.07
2019-04-16T01:02:42.798Z,3.04
2019-04-16T01:06:46.415Z,3.04
2019-04-16T01:10:50.078Z,3.02
2019-04-16T01:14:56.302Z,2.76
2019-04-16T01:18:59.093Z,2.61
2019-04-16T01:23:02.811Z,2.44
2019-04-16T01:27:06.532Z,2.32
2019-04-16T01:31:26.737Z,2.28
2019-04-16T01:35:37.511Z,2.28
2019-04-16T01:39:47.397Z,2.19
2019-04-16T01:43:48.223Z,2.24
2019-04-16T01:47:51.946Z,2.24
2019-04-16T01:51:55.551Z,2.18
2019-04-16T01:55:59.372Z,2.05
2019-04-16T02:00:06.777Z,1.97
2019-04-16T02:04:08.545Z,1.84
2019-04-16T02:08:12.069Z,1.75
2019-04-16T02:12:15.668Z,1.79
2019-04-16T02:16:19.215Z,1.73
2019-04-16T02:20:22.793Z,1.66
2019-04-16T02:24:26.415Z,1.56
2019-04-16T02:28:30.021Z,1.48
2019-04-16T02:32:33.636Z,1.42
2019-04-16T02:36:37.253Z,1.40
2019-04-16T02:40:40.867Z,1.43
2019-04-16T02:44:48.852Z,1.49
2019-04-16T02:48:51.496Z,1.37
2019-04-16T02:52:59.793Z,1.41
2019-04-16T02:57:07.916Z,1.37
2019-04-16T03:01:20.431Z,1.25
2019-04-16T03:05:22.609Z,1.17
2019-04-16T03:09:26.239Z,1.15
2019-04-16T03:13:30.046Z,1.21
2019-04-16T03:17:35.636Z,1.20
2019-04-16T03:21:39.324Z,1.28
2019-04-16T03:25:44.436Z,1.24
2019-04-16T03:29:48.392Z,1.23
2019-04-16T03:33:52.111Z,1.07
2019-04-16T03:37:55.824Z,1.03
2019-04-16T03:41:59.444Z,1.03
2019-04-16T03:46:03.293Z,1.05
2019-04-16T03:50:07.620Z,1.06
2019-04-16T03:54:11.705Z,1.01
2019-04-16T03:58:15.541Z,0.90
2019-04-16T04:02:22.178Z,0.87
2019-04-16T04:06:24.497Z,0.98
2019-04-16T04:10:30.951Z,0.89
2019-04-16T04:14:33.505Z,0.97
2019-04-16T04:18:37.081Z,0.97
2019-04-16T04:22:40.807Z,0.88
2019-04-16T04:26:44.407Z,0.92
2019-04-16T04:30:48.966Z,0.92
2019-04-16T04:34:52.676Z,0.88
2019-04-16T04:38:56.581Z,0.97
2019-04-16T04:43:00.947Z,1.01
2019-04-16T04:47:05.245Z,0.99
2019-04-16T04:51:09.147Z,1.08
2019-04-16T04:55:12.882Z,1.16
2019-04-16T04:59:16.598Z,1.28
2019-04-16T05:03:24.826Z,1.45
2019-04-16T05:07:29.350Z,1.66
2019-04-16T05:11:33.175Z,2.05
2019-04-16T05:15:36.888Z,2.43
2019-04-16T05:19:43.765Z,2.54
2019-04-16T05:23:45.957Z,2.33
2019-04-16T05:27:49.572Z,2.46
2019-04-16T05:31:54.534Z,2.94
2019-04-16T05:35:59.438Z,2.94
2019-04-16T05:40:05.192Z,3.05
2019-04-16T05:44:08.841Z,3.37
2019-04-16T05:48:12.864Z,3.52
2019-04-16T05:52:16.681Z,3.68
2019-04-16T05:56:30.630Z,3.77
2019-04-16T06:00:41.752Z,3.68
2019-04-16T06:04:43.905Z,3.90
2019-04-16T06:08:47.518Z,4.39
2019-04-16T06:12:59.855Z,4.05
2019-04-16T06:17:13.689Z,4.88
2019-04-16T06:21:31.024Z,5.32
2019-04-16T06:25:41.276Z,5.62
2019-04-16T06:29:57.588Z,6.64
2019-04-16T06:34:23.431Z,7.24
2019-04-16T06:38:42.114Z,7.28
2019-04-16T06:42:58.863Z,7.00
2019-04-16T06:47:04.081Z,7.73
2019-04-16T06:51:12.646Z,7.98
2019-04-16T06:55:34.772Z,8.60
2019-04-16T06:59:53.322Z,9.89
2019-04-16T07:03:59.880Z,9.02
2019-04-16T07:08:11.100Z,8.33
2019-04-16T07:12:16.350Z,7.81
2019-04-16T07:16:19.964Z,8.88
2019-04-16T07:20:23.579Z,8.83
2019-04-16T07:24:30.797Z,9.85
2019-04-16T07:28:34.494Z,10.04
2019-04-16T07:32:54.696Z,13.35
2019-04-16T07:37:02.487Z,15.27
2019-04-16T07:41:16.876Z,16.22
2019-04-16T07:45:20.901Z,17.36
2019-04-16T07:49:29.124Z,19.40
2019-04-16T07:53:47.457Z,20.76
2019-04-16T07:57:51.916Z,18.06
2019-04-16T08:01:55.795Z,21.05
2019-04-16T08:05:59.445Z,20.76
2019-04-16T08:10:03.440Z,21.87
2019-04-16T08:14:09.830Z,21.38
2019-04-16T08:18:12.533Z,19.46
2019-04-16T08:22:16.771Z,19.37
2019-04-16T08:26:20.496Z,20.60
2019-04-16T08:30:24.096Z,20.27
2019-04-16T08:34:27.814Z,21.42
2019-04-16T08:38:34.280Z,20.87
2019-04-16T08:42:44.484Z,23.08
2019-04-16T08:46:43.063Z,22.39
2019-04-16T08:50:49.339Z,21.49
2019-04-16T08:54:54.866Z,22.54
2019-04-16T08:59:00.901Z,21.47
2019-04-16T09:03:03.969Z,22.84
2019-04-16T09:07:12.165Z,21.55
2019-04-16T09:11:23.065Z,19.66
2019-04-16T09:15:21.869Z,19.27
2019-04-16T09:19:26.506Z,18.09
2019-04-16T09:23:30.223Z,19.40
2019-04-16T09:27:44.488Z,19.50
2019-04-16T09:31:55.085Z,18.44
2019-04-16T09:35:59.743Z,20.27
2019-04-16T09:40:16.446Z,21.47
2019-04-16T09:44:11.336Z,19.45
2019-04-16T09:48:15.105Z,19.11
2019-04-16T09:52:19.965Z,18.77
2019-04-16T09:56:29.879Z,18.26
2019-04-16T10:00:35.017Z,19.12
2019-04-16T10:04:38.619Z,18.72
2019-04-16T10:08:44.934Z,18.05
2019-04-16T10:12:47.709Z,18.07
2019-04-16T10:16:51.308Z,17.71
2019-04-16T10:20:54.916Z,17.75
2019-04-16T10:25:00.213Z,17.42
2019-04-16T10:29:06.065Z,18.08
2019-04-16T10:33:09.955Z,17.46
2019-04-16T10:37:13.675Z,17.32
2019-04-16T10:41:18.941Z,16.88
2019-04-16T10:45:30.248Z,16.53
2019-04-16T10:49:51.575Z,17.15
2019-04-16T10:54:02.745Z,17.30
2019-04-16T10:58:11.077Z,18.10
2019-04-16T11:02:32.695Z,18.31
2019-04-16T11:06:37.978Z,16.76
2019-04-16T11:10:41.855Z,17.35
2019-04-16T11:14:45.613Z,15.86
2019-04-16T11:18:49.550Z,15.36
2019-04-16T11:22:53.228Z,14.99
2019-04-16T11:26:56.842Z,14.86
2019-04-16T11:31:17.144Z,15.09
2019-04-16T11:35:23.093Z,14.72
2019-04-16T11:39:26.539Z,14.74
2019-04-16T11:43:30.377Z,14.70
2019-04-16T11:47:34.872Z,14.47
2019-04-16T11:51:38.651Z,14.55
2019-04-16T11:55:42.362Z,15.03
2019-04-16T11:59:45.952Z,14.82
2019-04-16T12:03:51.291Z,14.80
2019-04-16T12:08:08.434Z,14.75
2019-04-16T12:12:13.677Z,14.95
2019-04-16T12:16:24.394Z,15.08
2019-04-16T12:20:45.004Z,14.91
2019-04-16T12:24:52.908Z,15.05
2019-04-16T12:28:58.170Z,14.85
2019-04-16T12:33:07.465Z,14.99
2019-04-16T12:37:16.676Z,14.81
2019-04-16T12:41:39.808Z,14.88
2019-04-16T12:45:45.140Z,14.92
2019-04-16T12:49:53.265Z,15.07
2019-04-16T12:54:04.567Z,14.83
2019-04-16T12:58:10.939Z,14.85
2019-04-16T13:02:18.953Z,14.81
2019-04-16T13:06:26.933Z,15.07
2019-04-16T13:10:33.964Z,15.23
2019-04-16T13:15:00.465Z,15.25
2019-04-16T13:19:04.031Z,14.90
2019-04-16T13:23:24.334Z,14.98
2019-04-16T13:27:29.599Z,15.11
2019-04-16T13:31:33.290Z,15.00
2019-04-16T13:35:37.032Z,14.98
2019-04-16T13:39:42.378Z,15.07
2019-04-16T13:43:50.298Z,15.09
2019-04-16T13:47:56.102Z,15.40
2019-04-16T13:51:59.778Z,15.40
2019-04-16T13:56:20.895Z,15.42
2019-04-16T14:00:28.914Z,15.56
2019-04-16T14:04:32.632Z,15.15
2019-04-16T14:08:36.242Z,15.19
2019-04-16T14:12:42.512Z,15.62
2019-04-16T14:16:46.439Z,15.66
2019-04-16T14:20:50.086Z,15.50
2019-04-16T14:24:53.745Z,15.54
2019-04-16T14:28:58.635Z,15.33
2019-04-16T14:33:06.164Z,15.67
2019-04-16T14:37:07.997Z,15.36
2019-04-16T14:41:15.759Z,15.46
2019-04-16T14:45:20.371Z,15.42
2019-04-16T14:49:25.679Z,15.41
2019-04-16T14:53:31.272Z,15.58
2019-04-16T14:57:36.510Z,15.29
2019-04-16T15:01:48.162Z,15.26
2019-04-16T15:06:08.676Z,15.34
2019-04-16T15:10:23.787Z,15.39
2019-04-16T15:14:32.729Z,15.47
2019-04-16T15:18:46.809Z,15.44
2019-04-16T15:22:52.376Z,15.33
2019-04-16T15:26:57.762Z,15.18
2019-04-16T15:31:03.296Z,15.21
2019-04-16T15:35:14.081Z,15.15
2019-04-16T15:39:17.024Z,15.08
2019-04-16T15:43:38.807Z,15.17
2019-04-16T15:47:53.344Z,15.02
2019-04-16T15:52:15.014Z,14.88
2019-04-16T15:56:36.779Z,14.68
2019-04-16T16:00:49.370Z,14.56
2019-04-16T16:05:00.458Z,14.56
2019-04-16T16:09:21.486Z,14.43
2019-04-16T16:13:26.317Z,14.43
2019-04-16T16:17:31.064Z,14.41
2019-04-16T16:21:34.678Z,14.40
2019-04-16T16:25:41.442Z,14.44
2019-04-16T16:29:44.466Z,14.30
2019-04-16T16:33:48.007Z,14.17
2019-04-16T16:37:52.024Z,14.08
2019-04-16T16:41:57.458Z,14.01
2019-04-16T16:46:05.793Z,13.94
2019-04-16T16:50:12.130Z,13.88
2019-04-16T16:54:28.781Z,13.90
2019-04-16T16:58:36.723Z,13.83
2019-04-16T17:02:44.515Z,13.75
2019-04-16T17:06:48.351Z,13.66
2019-04-16T17:10:51.946Z,13.56
2019-04-16T17:14:55.881Z,13.47
2019-04-16T17:18:59.525Z,13.43
2019-04-16T17:23:03.401Z,13.37
2019-04-16T17:27:07.113Z,13.29
2019-04-16T17:31:10.918Z,13.11
2019-04-16T17:35:15.936Z,13.08
2019-04-16T17:39:36.079Z,12.83
2019-04-16T17:44:01.896Z,12.81
2019-04-16T17:48:09.112Z,12.72
2019-04-16T17:52:16.839Z,12.74
2019-04-16T17:56:38.062Z,12.56
2019-04-16T18:00:49.772Z,12.38
2019-04-16T18:04:58.187Z,12.25
2019-04-16T18:09:19.923Z,12.30
2019-04-16T18:13:37.875Z,12.13
2019-04-16T18:17:47.416Z,11.96
2019-04-16T18:21:55.955Z,11.94
2019-04-16T18:26:15.676Z,11.81
2019-04-16T18:30:27.862Z,11.72
2019-04-16T18:34:33.214Z,11.63
2019-04-16T18:38:47.477Z,11.53
2019-04-16T18:42:59.169Z,11.36
2019-04-16T18:47:16.418Z,11.26
2019-04-16T18:51:19.954Z,11.14
2019-04-16T18:55:23.743Z,11.17
2019-04-16T18:59:27.468Z,11.21
2019-04-16T19:03:31.182Z,11.09
2019-04-16T19:07:34.800Z,10.99
2019-04-16T19:11:38.611Z,10.79
2019-04-16T19:15:42.236Z,10.88
2019-04-16T19:19:45.938Z,10.76
2019-04-16T19:23:49.656Z,10.77
2019-04-16T19:27:53.269Z,10.67
2019-04-16T19:31:57.556Z,10.59
2019-04-16T19:36:01.164Z,10.62
2019-04-16T19:40:05.340Z,10.66
2019-04-16T19:44:11.917Z,10.59
2019-04-16T19:48:17.939Z,10.42
2019-04-16T19:52:21.102Z,10.42
2019-04-16T19:56:24.710Z,10.35
2019-04-16T20:00:28.269Z,10.38
2019-04-16T20:04:32.042Z,10.21
2019-04-16T20:08:39.868Z,10.19
2019-04-16T20:12:41.115Z,10.08
2019-04-16T20:16:44.730Z,10.08
2019-04-16T20:20:50.188Z,10.06
2019-04-16T20:24:53.801Z,10.09
2019-04-16T20:28:57.499Z,10.08
2019-04-16T20:33:01.504Z,9.92
2019-04-16T20:37:05.255Z,9.89
2019-04-16T20:41:08.865Z,9.82
2019-04-16T20:45:12.786Z,9.84
2019-04-16T20:49:18.412Z,9.68
2019-04-16T20:53:21.756Z,9.67
2019-04-16T20:57:26.411Z,9.69
2019-04-16T21:01:35.184Z,9.69
2019-04-16T21:05:36.680Z,9.56
2019-04-16T21:09:40.411Z,9.47
2019-04-16T21:13:44.054Z,9.43
2019-04-16T21:17:49.687Z,9.32
2019-04-16T21:21:56.513Z,9.18
2019-04-16T21:25:58.643Z,8.78
2019-04-16T21:30:03.862Z,8.92
2019-04-16T21:34:09.262Z,9.07
2019-04-16T21:38:14.513Z,8.89
2019-04-16T21:42:18.128Z,8.95
2019-04-16T21:46:21.741Z,9.09
2019-04-16T21:50:25.459Z,9.21
2019-04-16T21:54:30.502Z,9.16
2019-04-16T21:58:34.739Z,9.01
2019-04-16T22:02:39.987Z,9.13
2019-04-16T22:06:43.702Z,9.08
2019-04-16T22:10:47.421Z,8.90
2019-04-16T22:14:54.416Z,8.84
2019-04-16T22:18:56.595Z,8.86
2019-04-16T22:23:00.753Z,8.78
2019-04-16T22:27:06.963Z,8.58
2019-04-16T22:31:09.893Z,8.51
2019-04-16T22:35:13.723Z,8.31
2019-04-16T22:39:18.966Z,8.22
2019-04-16T22:43:29.742Z,8.24
2019-04-16T22:47:35.004Z,8.16
2019-04-16T22:51:39.826Z,8.24
2019-04-16T22:55:44.065Z,8.14
2019-04-16T22:59:47.653Z,8.10
2019-04-16T23:03:53.374Z,8.27
2019-04-16T23:07:56.853Z,8.11
2019-04-16T23:12:00.801Z,8.00
2019-04-16T23:16:04.674Z,7.93
2019-04-16T23:20:09.535Z,7.62
2019-04-16T23:24:13.177Z,7.53
2019-04-16T23:28:16.868Z,7.45
2019-04-16T23:32:20.481Z,7.38
2019-04-16T23:36:24.097Z,7.41
2019-04-16T23:40:27.680Z,7.48
2019-04-16T23:44:47.713Z,7.36
2019-04-16T23:49:02.091Z,7.22
2019-04-16T23:53:08.974Z,7.09
2019-04-16T23:57:16.882Z,6.93
